Time;durP1;ratioP1;P1;durP2;ratioP2;P2;SDS_P1;SDS_P2;PMS_P1;PMS_P2;Temp;Humidity;BMP_temperature;BMP_pressure;BME280_temperature;BME280_humidity;BME280_pressure;Samples;Min_cycle;Max_cycle;Signal;HPM_P1;HPM_P2
2022/12/23 00:01:14;;;;;;;93.10;22.73;;;10.00;99.90;;;;;;5052215;28;20438;-71
2022/12/23 00:03:40;;;;;;;87.93;21.75;;;10.00;99.90;;;;;;5069993;28;20090;-71
2022/12/23 00:06:10;;;;;;;92.78;21.90;;;9.90;99.90;;;;;;5072305;28;20531;-71
2022/12/23 00:08:36;;;;;;;76.35;20.90;;;10.00;99.90;;;;;;5074644;28;20021;-71
2022/12/23 00:11:04;;;;;;;92.18;20.77;;;10.00;99.90;;;;;;5075142;28;20020;-71
2022/12/23 00:16:14;;;;;;;74.20;20.63;;;9.90;99.90;;;;;;5075219;28;20039;-71
2022/12/23 00:18:41;;;;;;;70.78;20.60;;;10.00;99.90;;;;;;5076496;28;20099;-71
2022/12/23 00:21:09;;;;;;;85.57;21.67;;;9.90;99.90;;;;;;5072885;28;20040;-72
2022/12/23 00:23:37;;;;;;;81.40;21.80;;;10.00;99.90;;;;;;5073131;28;20027;-72
2022/12/23 00:26:05;;;;;;;87.50;23.98;;;9.90;99.90;;;;;;5067699;28;20016;-72
2022/12/23 00:28:31;;;;;;;77.03;23.27;;;10.00;99.90;;;;;;5073029;28;20501;-72
2022/12/23 00:31:02;;;;;;;91.00;23.27;;;10.00;99.90;;;;;;5074131;28;20133;-72
2022/12/23 00:33:44;;;;;;;79.85;23.20;;;10.00;99.90;;;;;;5072132;28;20095;-71
2022/12/23 00:36:37;;;;;;;79.03;21.98;;;10.00;99.90;;;;;;5087387;28;20415;-72
2022/12/23 00:44:31;;;;;;;76.30;21.08;;;10.00;99.90;;;;;;5056692;28;20032;-72
2022/12/23 00:46:57;;;;;;;80.35;20.90;;;10.00;99.90;;;;;;5066802;28;20020;-72
2022/12/23 00:49:41;;;;;;;83.07;21.88;;;10.00;99.90;;;;;;5076595;28;20021;-72
2022/12/23 00:52:10;;;;;;;80.88;20.65;;;10.00;99.90;;;;;;5057038;28;20038;-72
2022/12/23 00:54:35;;;;;;;74.35;20.65;;;10.00;99.90;;;;;;5070004;28;20055;-72
2022/12/23 00:57:01;;;;;;;84.38;21.02;;;10.10;99.90;;;;;;5050892;28;20020;-72
2022/12/23 00:59:27;;;;;;;71.85;21.15;;;10.10;99.90;;;;;;5066378;28;20559;-72
2022/12/23 01:07:21;;;;;;;79.75;20.90;;;10.10;99.90;;;;;;5071917;28;20055;-71
2022/12/23 01:09:47;;;;;;;78.43;21.38;;;10.10;99.90;;;;;;5069222;28;20021;-71
2022/12/23 01:12:13;;;;;;;74.65;21.38;;;10.10;99.90;;;;;;5069411;28;20031;-72
2022/12/23 01:14:39;;;;;;;82.45;19.90;;;10.10;99.90;;;;;;5057639;28;20100;-71
2022/12/23 01:17:06;;;;;;;63.15;19.55;;;10.10;99.90;;;;;;5066712;28;20021;-72
2022/12/23 01:19:32;;;;;;;48.22;18.15;;;10.10;99.90;;;;;;5064329;28;20383;-72
2022/12/23 01:21:58;;;;;;;50.97;17.77;;;10.10;99.90;;;;;;5071280;28;20397;-72
2022/12/23 01:24:28;;;;;;;44.33;16.90;;;10.10;99.90;;;;;;5079694;28;20024;-72
2022/12/23 01:26:53;;;;;;;49.38;15.82;;;10.00;99.90;;;;;;5066900;28;20472;-72
2022/12/23 01:29:19;;;;;;;41.45;16.73;;;10.10;99.90;;;;;;5083005;28;20016;-71
2022/12/23 01:31:44;;;;;;;40.70;15.98;;;10.00;99.90;;;;;;5069684;28;20035;-71
2022/12/23 01:34:10;;;;;;;35.13;15.15;;;10.00;99.90;;;;;;5071337;28;20070;-72
2022/12/23 01:36:36;;;;;;;35.78;15.00;;;10.00;99.90;;;;;;5064643;28;20035;-72
2022/12/23 01:39:02;;;;;;;25.33;11.90;;;10.00;99.90;;;;;;5077401;28;20023;-71
2022/12/23 01:44:56;;;;;;;27.27;10.65;;;10.00;99.90;;;;;;5084227;28;20027;-72
2022/12/23 01:47:48;;;;;;;21.67;9.30;;;10.00;99.90;;;;;;5058277;28;20032;-71
2022/12/23 01:50:26;;;;;;;23.52;9.13;;;9.90;99.90;;;;;;5050360;28;20575;-71
2022/12/23 01:53:07;;;;;;;21.15;9.13;;;9.90;99.90;;;;;;5061433;28;20039;-71
2022/12/23 01:55:56;;;;;;;18.00;7.55;;;9.90;99.90;;;;;;5059582;28;20370;-72
2022/12/23 01:58:27;;;;;;;25.38;8.82;;;9.90;99.90;;;;;;5067130;28;20597;-71
2022/12/23 02:03:41;;;;;;;16.85;7.57;;;9.90;99.90;;;;;;5072796;28;20051;-72
2022/12/23 02:09:25;;;;;;;16.73;7.43;;;9.80;99.90;;;;;;5058568;28;20044;-72
2022/12/23 02:12:13;;;;;;;18.92;8.27;;;9.80;99.90;;;;;;5068185;28;20122;-72
2022/12/23 02:18:03;;;;;;;15.38;8.00;;;9.80;99.90;;;;;;5053247;28;20220;-72
2022/12/23 02:21:01;;;;;;;15.23;8.40;;;9.80;99.90;;;;;;5061457;28;20016;-72
2022/12/23 02:24:00;;;;;;;21.05;9.70;;;9.80;99.90;;;;;;5060768;28;20389;-71
2022/12/23 02:26:47;;;;;;;17.95;9.60;;;9.80;99.90;;;;;;5070157;28;20119;-71
2022/12/23 02:29:34;;;;;;;19.35;10.70;;;9.80;99.90;;;;;;5072972;28;20378;-71
2022/12/23 02:32:11;;;;;;;20.50;10.85;;;9.80;99.90;;;;;;5064858;28;20040;-72
2022/12/23 02:35:09;;;;;;;21.33;11.35;;;9.80;99.90;;;;;;5067045;28;20104;-71
2022/12/23 02:38:22;;;;;;;23.83;11.05;;;9.80;99.90;;;;;;5045700;28;20037;-71
2022/12/23 02:41:05;;;;;;;22.15;12.00;;;9.80;99.90;;;;;;4971531;28;20480;-71
2022/12/23 02:43:43;;;;;;;22.02;11.98;;;9.80;99.90;;;;;;4990255;28;20400;-71
2022/12/23 02:46:31;;;;;;;26.95;12.77;;;9.80;99.90;;;;;;4983742;28;20057;-72
2022/12/23 02:49:09;;;;;;;24.65;12.85;;;9.80;99.90;;;;;;4977445;28;20038;-71
2022/12/23 02:51:41;;;;;;;31.50;14.57;;;9.80;99.90;;;;;;4977672;28;20073;-71
2022/12/23 02:54:11;;;;;;;30.10;14.45;;;9.80;99.90;;;;;;4996354;28;20035;-71
2022/12/23 02:56:41;;;;;;;27.90;13.15;;;9.80;99.90;;;;;;4973905;28;20049;-72
2022/12/23 02:59:13;;;;;;;27.08;14.10;;;9.80;99.90;;;;;;5004141;28;20038;-72
2022/12/23 03:01:40;;;;;;;25.88;13.32;;;9.80;99.90;;;;;;4992000;28;20515;-72
2022/12/23 03:04:06;;;;;;;24.35;12.50;;;9.80;99.90;;;;;;4990815;28;20201;-71
2022/12/23 03:06:38;;;;;;;25.88;12.57;;;9.80;99.90;;;;;;4982914;28;20146;-72
2022/12/23 03:09:04;;;;;;;24.50;12.70;;;9.80;99.90;;;;;;5008092;28;20042;-71
2022/12/23 03:11:46;;;;;;;25.67;12.65;;;9.70;99.90;;;;;;4995795;28;20036;-72
2022/12/23 03:14:33;;;;;;;23.00;11.35;;;9.80;99.90;;;;;;5020502;28;20420;-71
2022/12/23 03:16:59;;;;;;;21.73;11.70;;;9.80;99.90;;;;;;5059537;28;20029;-71
2022/12/23 03:19:47;;;;;;;25.67;12.18;;;9.80;99.90;;;;;;5052130;28;20028;-71
2022/12/23 03:22:21;;;;;;;22.38;12.77;;;9.80;99.90;;;;;;5060522;28;20036;-71
2022/12/23 03:24:58;;;;;;;25.43;14.10;;;9.80;99.90;;;;;;5061497;28;20033;-72
2022/12/23 03:27:53;;;;;;;27.52;14.73;;;9.70;99.90;;;;;;5065801;28;20643;-72
2022/12/23 03:30:21;;;;;;;35.03;16.70;;;9.80;99.90;;;;;;5049151;28;20449;-71
2022/12/23 03:32:58;;;;;;;32.30;16.65;;;9.70;99.90;;;;;;5039877;28;20402;-71
2022/12/23 03:35:30;;;;;;;33.03;16.90;;;9.80;99.90;;;;;;5046577;28;20040;-71
2022/12/23 03:37:59;;;;;;;30.40;16.40;;;9.70;99.90;;;;;;5041283;28;20494;-71
2022/12/23 03:40:56;;;;;;;33.03;17.35;;;9.80;99.90;;;;;;5048216;28;20565;-72
2022/12/23 03:43:33;;;;;;;37.58;17.67;;;9.80;99.90;;;;;;5037487;28;20046;-71
2022/12/23 03:46:07;;;;;;;33.67;16.85;;;9.70;99.90;;;;;;5043983;28;20036;-71
2022/12/23 03:48:42;;;;;;;33.90;17.92;;;9.70;99.90;;;;;;5053559;28;20413;-71
2022/12/23 03:51:22;;;;;;;33.10;17.42;;;9.70;99.90;;;;;;5034491;28;20462;-71
2022/12/23 03:53:53;;;;;;;30.70;17.35;;;9.70;99.90;;;;;;5049142;28;20476;-71
2022/12/23 03:56:25;;;;;;;34.13;18.35;;;9.70;99.90;;;;;;5048972;28;20556;-71
2022/12/23 03:58:59;;;;;;;36.45;18.33;;;9.70;99.90;;;;;;5048201;28;20656;-72
2022/12/23 04:01:51;;;;;;;35.67;18.38;;;9.70;99.90;;;;;;5046303;28;20048;-71
2022/12/23 04:04:34;;;;;;;28.48;16.88;;;9.70;99.90;;;;;;5040796;28;20041;-71
2022/12/23 04:07:12;;;;;;;31.40;16.85;;;9.70;99.90;;;;;;5055112;28;20554;-71
2022/12/23 04:09:39;;;;;;;32.17;17.92;;;9.60;99.90;;;;;;5071177;28;20049;-72
2022/12/23 04:12:06;;;;;;;30.17;17.77;;;9.60;99.90;;;;;;5059970;28;20020;-71
2022/12/23 04:14:34;;;;;;;36.80;18.60;;;9.60;99.90;;;;;;5071032;28;20039;-71
2022/12/23 04:17:00;;;;;;;30.83;19.00;;;9.60;99.90;;;;;;5069212;28;20095;-71
2022/12/23 04:19:26;;;;;;;34.35;18.35;;;9.60;99.90;;;;;;5065051;28;20144;-71
2022/12/23 04:21:54;;;;;;;31.90;18.48;;;9.60;99.90;;;;;;5066265;28;20057;-71
2022/12/23 04:24:20;;;;;;;35.45;18.73;;;9.60;99.90;;;;;;5063175;28;21711;-71
2022/12/23 04:26:46;;;;;;;35.78;18.85;;;9.60;99.90;;;;;;5061438;28;20108;-72
2022/12/23 04:29:11;;;;;;;31.65;18.30;;;9.60;99.90;;;;;;5057824;28;20029;-71
2022/12/23 04:31:37;;;;;;;31.98;17.15;;;9.60;99.90;;;;;;5056723;28;20119;-71
2022/12/23 04:34:03;;;;;;;33.63;17.60;;;9.60;99.90;;;;;;5068841;28;20025;-71
2022/12/23 04:36:28;;;;;;;32.92;17.50;;;9.60;99.90;;;;;;5063979;28;20049;-72
2022/12/23 04:38:54;;;;;;;32.05;15.82;;;9.60;99.90;;;;;;5071039;28;20044;-71
2022/12/23 04:41:19;;;;;;;32.60;16.48;;;9.60;99.90;;;;;;5061192;28;20033;-71
2022/12/23 04:43:45;;;;;;;29.48;15.63;;;9.60;99.90;;;;;;5068611;28;20025;-71
2022/12/23 04:46:11;;;;;;;27.95;15.52;;;9.60;99.90;;;;;;5061202;28;20013;-72
2022/12/23 04:48:37;;;;;;;30.15;15.98;;;9.60;99.90;;;;;;5067480;28;20036;-72
2022/12/23 04:51:03;;;;;;;31.73;16.08;;;9.60;99.90;;;;;;5062178;28;20024;-71
2022/12/23 04:53:29;;;;;;;31.48;15.10;;;9.60;99.90;;;;;;5057132;28;20024;-71
2022/12/23 04:55:54;;;;;;;29.33;14.48;;;9.60;99.90;;;;;;5074109;28;20020;-71
2022/12/23 04:58:21;;;;;;;27.83;14.88;;;9.60;99.90;;;;;;5060848;28;20025;-71
2022/12/23 05:00:47;;;;;;;27.55;14.52;;;9.60;99.90;;;;;;5072796;28;20448;-71
2022/12/23 05:03:12;;;;;;;27.33;14.40;;;9.50;99.90;;;;;;5062386;28;20120;-71
2022/12/23 05:05:44;;;;;;;29.33;14.20;;;9.60;99.90;;;;;;5062970;28;20108;-71
2022/12/23 05:08:10;;;;;;;31.55;13.95;;;9.60;99.90;;;;;;5068363;28;20021;-71
2022/12/23 05:10:36;;;;;;;29.73;13.95;;;9.60;99.90;;;;;;5054353;28;20122;-71
2022/12/23 05:13:02;;;;;;;27.90;12.52;;;9.60;99.90;;;;;;5067070;28;20474;-71
2022/12/23 05:15:29;;;;;;;27.27;14.02;;;9.60;99.90;;;;;;5074020;28;20036;-71
2022/12/23 05:17:54;;;;;;;28.13;13.88;;;9.60;99.90;;;;;;5052994;28;20066;-71
2022/12/23 05:20:20;;;;;;;29.10;15.05;;;9.50;99.90;;;;;;5056816;28;20424;-71
2022/12/23 05:22:45;;;;;;;25.85;14.63;;;9.60;99.90;;;;;;5065417;28;20040;-71
2022/12/23 05:25:11;;;;;;;26.30;14.43;;;9.50;99.90;;;;;;5053919;28;20021;-71
2022/12/23 05:27:37;;;;;;;30.35;14.18;;;9.60;99.90;;;;;;5060764;28;20656;-71
2022/12/23 05:30:03;;;;;;;27.40;13.63;;;9.50;99.90;;;;;;5064433;28;20027;-71
2022/12/23 05:32:28;;;;;;;24.13;13.15;;;9.60;99.90;;;;;;5082743;28;20020;-71
2022/12/23 05:34:54;;;;;;;24.38;12.55;;;9.60;99.90;;;;;;5073826;28;20078;-71
2022/12/23 05:37:20;;;;;;;24.80;12.93;;;9.50;99.90;;;;;;5073979;28;20046;-71
2022/12/23 05:39:45;;;;;;;26.45;13.45;;;9.50;99.90;;;;;;5073593;28;20185;-72
2022/12/23 05:42:11;;;;;;;23.98;13.93;;;9.50;99.90;;;;;;5060019;28;20028;-71
2022/12/23 05:44:37;;;;;;;24.92;14.35;;;9.50;99.90;;;;;;5073746;28;20020;-71
2022/12/23 05:47:02;;;;;;;23.30;13.38;;;9.50;99.90;;;;;;5073171;28;20020;-72
2022/12/23 05:49:28;;;;;;;27.42;14.00;;;9.50;99.90;;;;;;5063637;28;20393;-71
2022/12/23 05:51:54;;;;;;;25.52;13.77;;;9.50;99.90;;;;;;5071180;28;20107;-71
2022/12/23 05:54:19;;;;;;;23.30;13.10;;;9.60;99.90;;;;;;5075957;28;20024;-71
2022/12/23 05:56:45;;;;;;;25.85;13.60;;;9.50;99.90;;;;;;5073692;28;20025;-71
2022/12/23 05:59:11;;;;;;;25.95;13.90;;;9.50;99.90;;;;;;5073229;28;20020;-71
2022/12/23 06:01:36;;;;;;;25.35;14.57;;;9.50;99.90;;;;;;5073326;28;20054;-71
2022/12/23 06:04:02;;;;;;;25.65;14.57;;;9.50;99.90;;;;;;5070754;28;20051;-71
2022/12/23 06:06:28;;;;;;;28.50;15.55;;;9.50;99.90;;;;;;5054999;28;20024;-71
2022/12/23 06:08:55;;;;;;;27.58;14.00;;;9.50;99.90;;;;;;5073044;28;20098;-71
2022/12/23 06:11:21;;;;;;;32.30;16.10;;;9.50;99.90;;;;;;5073191;28;20028;-71
2022/12/23 06:13:46;;;;;;;33.33;16.27;;;9.50;99.90;;;;;;5072762;28;20081;-71
2022/12/23 06:16:12;;;;;;;34.63;17.77;;;9.50;99.90;;;;;;5072556;28;20032;-71
2022/12/23 06:18:38;;;;;;;40.10;20.05;;;9.50;99.90;;;;;;5072883;28;20394;-71
2022/12/23 06:21:04;;;;;;;37.05;19.02;;;9.50;99.90;;;;;;5072986;28;20028;-71
2022/12/23 06:23:30;;;;;;;37.53;19.67;;;9.50;99.90;;;;;;5072204;28;20032;-71
2022/12/23 06:25:59;;;;;;;42.85;21.13;;;9.50;99.90;;;;;;5072900;28;20021;-71
2022/12/23 06:28:25;;;;;;;42.13;21.50;;;9.50;99.90;;;;;;5072812;28;20424;-71
2022/12/23 06:30:55;;;;;;;44.28;21.92;;;9.50;99.90;;;;;;5072792;28;20020;-71
2022/12/23 06:33:22;;;;;;;44.00;20.98;;;9.50;99.90;;;;;;5058298;28;20024;-71
2022/12/23 06:35:48;;;;;;;40.30;20.65;;;9.50;99.90;;;;;;5072254;28;20508;-71
2022/12/23 06:38:14;;;;;;;42.72;21.20;;;9.50;99.90;;;;;;5071986;28;20025;-71
2022/12/23 06:40:40;;;;;;;38.05;20.58;;;9.50;99.90;;;;;;5065085;28;20044;-71
2022/12/23 06:43:06;;;;;;;48.15;22.60;;;9.50;99.90;;;;;;5063171;28;20143;-72
2022/12/23 06:45:31;;;;;;;43.40;22.08;;;9.50;99.90;;;;;;5070121;28;20036;-71
2022/12/23 06:47:57;;;;;;;42.67;22.05;;;9.50;99.90;;;;;;5063717;28;20017;-72
2022/12/23 06:50:23;;;;;;;44.85;21.95;;;9.50;99.90;;;;;;5080293;28;20016;-71
2022/12/23 06:52:49;;;;;;;45.95;22.40;;;9.50;99.90;;;;;;5063071;28;20379;-71
2022/12/23 06:55:15;;;;;;;40.10;20.60;;;9.50;99.90;;;;;;5063108;28;20134;-71
2022/12/23 06:57:40;;;;;;;43.20;20.73;;;9.50;99.90;;;;;;5059788;28;20147;-71
2022/12/23 07:00:07;;;;;;;42.60;21.00;;;9.50;99.90;;;;;;5060730;28;20054;-71
2022/12/23 07:02:33;;;;;;;42.75;20.58;;;9.50;99.90;;;;;;5059441;28;20044;-71
2022/12/23 07:04:59;;;;;;;43.35;20.05;;;9.50;99.90;;;;;;5075032;28;20044;-71
2022/12/23 07:07:25;;;;;;;44.65;20.48;;;9.50;99.90;;;;;;5073803;28;20069;-71
2022/12/23 07:09:50;;;;;;;43.72;21.63;;;9.50;99.90;;;;;;5085600;28;20024;-71
2022/12/23 07:12:16;;;;;;;43.03;20.63;;;9.50;99.90;;;;;;5052344;28;20032;-71
2022/12/23 07:14:42;;;;;;;46.35;21.60;;;9.50;99.90;;;;;;5063519;28;20477;-71
2022/12/23 07:17:07;;;;;;;53.30;21.17;;;9.50;99.90;;;;;;5076949;28;20021;-71
2022/12/23 07:19:33;;;;;;;46.40;21.17;;;9.50;99.90;;;;;;5085640;28;20020;-71
2022/12/23 07:21:58;;;;;;;46.97;21.75;;;9.50;99.90;;;;;;5074914;28;20028;-71
2022/12/23 07:24:24;;;;;;;46.55;21.35;;;9.50;99.90;;;;;;5086521;28;20630;-71
2022/12/23 07:26:50;;;;;;;50.55;22.60;;;9.50;99.90;;;;;;5081176;28;20438;-72
2022/12/23 07:29:16;;;;;;;50.17;23.05;;;9.50;99.90;;;;;;5087629;28;20095;-71
2022/12/23 07:31:41;;;;;;;51.90;22.45;;;9.50;99.90;;;;;;5081218;28;20131;-71
2022/12/23 07:34:08;;;;;;;55.10;23.33;;;9.50;99.90;;;;;;5087425;28;20448;-71
2022/12/23 07:36:33;;;;;;;60.88;23.90;;;9.60;99.90;;;;;;5078242;28;20092;-70
2022/12/23 07:38:59;;;;;;;60.25;24.45;;;9.50;99.90;;;;;;5079432;28;20036;-71
2022/12/23 07:41:25;;;;;;;57.22;24.83;;;9.50;99.90;;;;;;5077609;28;20408;-72
2022/12/23 07:43:50;;;;;;;63.65;25.20;;;9.50;99.90;;;;;;5085112;28;20027;-71
2022/12/23 07:46:16;;;;;;;59.72;24.50;;;9.50;99.90;;;;;;5085425;28;20086;-71
2022/12/23 07:48:42;;;;;;;59.00;24.38;;;9.50;99.90;;;;;;5077415;28;20025;-71
2022/12/23 07:51:08;;;;;;;55.65;24.88;;;9.50;99.90;;;;;;5053617;28;20092;-71
2022/12/23 07:53:33;;;;;;;66.53;25.95;;;9.50;99.90;;;;;;5063965;28;20033;-71
2022/12/23 07:55:59;;;;;;;62.45;25.88;;;9.60;99.90;;;;;;5070731;28;20102;-71
2022/12/23 07:58:25;;;;;;;70.32;26.60;;;9.50;99.90;;;;;;5069226;28;20021;-71
2022/12/23 08:00:57;;;;;;;76.03;26.15;;;9.50;99.90;;;;;;5071473;28;20031;-72
2022/12/23 08:03:22;;;;;;;64.65;24.70;;;9.50;99.90;;;;;;5063126;28;20425;-71
2022/12/23 08:05:58;;;;;;;66.88;23.75;;;9.50;99.90;;;;;;5067283;28;20052;-72
2022/12/23 08:08:24;;;;;;;66.07;24.33;;;9.50;99.90;;;;;;5059571;28;20033;-71
2022/12/23 08:10:50;;;;;;;56.78;22.95;;;9.50;99.90;;;;;;5070707;28;20498;-71
2022/12/23 08:13:15;;;;;;;54.25;20.30;;;9.50;99.90;;;;;;5067892;28;20017;-71
2022/12/23 08:15:41;;;;;;;53.03;20.65;;;9.50;99.90;;;;;;5050482;28;20111;-72
2022/12/23 08:18:06;;;;;;;50.80;20.30;;;9.50;99.90;;;;;;5069136;28;20430;-71
2022/12/23 08:20:32;;;;;;;46.05;18.98;;;9.50;99.90;;;;;;5076662;28;20025;-71
2022/12/23 08:22:57;;;;;;;52.92;18.92;;;9.50;99.90;;;;;;5073183;28;20035;-71
2022/12/23 08:25:23;;;;;;;41.17;17.77;;;9.50;99.90;;;;;;5074365;28;20027;-71
2022/12/23 08:27:50;;;;;;;44.17;17.17;;;9.50;99.90;;;;;;5066426;28;20101;-72
2022/12/23 08:30:15;;;;;;;38.40;16.52;;;9.50;99.90;;;;;;5055922;28;20025;-69
2022/12/23 08:32:41;;;;;;;34.95;15.57;;;9.50;99.90;;;;;;5073944;28;20136;-70
2022/12/23 08:35:07;;;;;;;32.78;14.60;;;9.50;99.90;;;;;;5071428;28;20471;-70
2022/12/23 08:37:32;;;;;;;33.53;14.80;;;9.50;99.90;;;;;;5073000;28;20052;-71
2022/12/23 08:39:58;;;;;;;35.03;14.25;;;9.50;99.90;;;;;;5075113;28;20021;-71
2022/12/23 08:42:23;;;;;;;33.05;13.77;;;9.50;99.90;;;;;;5073297;28;20107;-71
2022/12/23 08:44:49;;;;;;;32.83;12.82;;;9.50;99.90;;;;;;5073306;28;20025;-73
2022/12/23 08:47:15;;;;;;;32.50;12.70;;;9.50;99.90;;;;;;5072026;28;20017;-71
2022/12/23 08:49:41;;;;;;;28.52;12.10;;;9.50;99.90;;;;;;5079177;28;20195;-71
2022/12/23 08:52:06;;;;;;;27.63;12.13;;;9.50;99.90;;;;;;5074774;28;20095;-71
2022/12/23 08:54:32;;;;;;;26.65;12.25;;;9.50;99.90;;;;;;5085060;28;20023;-71
2022/12/23 08:56:58;;;;;;;29.35;12.15;;;9.50;99.90;;;;;;5079414;28;20474;-71
2022/12/23 08:59:23;;;;;;;24.77;12.00;;;9.50;99.90;;;;;;5073940;28;20025;-71
2022/12/23 09:01:49;;;;;;;27.92;12.25;;;9.50;99.90;;;;;;5062074;28;20036;-71
2022/12/23 09:04:14;;;;;;;28.48;12.35;;;9.50;99.90;;;;;;5080570;28;20041;-72
2022/12/23 09:06:41;;;;;;;25.05;11.85;;;9.50;99.90;;;;;;5073992;28;20020;-71
2022/12/23 09:09:10;;;;;;;22.52;11.30;;;9.50;99.90;;;;;;5085493;28;20044;-71
2022/12/23 09:11:36;;;;;;;28.77;11.73;;;9.50;99.90;;;;;;5068512;28;20035;-71
2022/12/23 09:14:03;;;;;;;21.75;11.52;;;9.50;99.90;;;;;;5084324;28;20062;-71
2022/12/23 09:16:29;;;;;;;24.15;11.90;;;9.50;99.90;;;;;;5082445;28;20575;-71
2022/12/23 09:18:55;;;;;;;21.70;11.75;;;9.50;99.90;;;;;;5066949;28;20020;-71
2022/12/23 09:21:22;;;;;;;27.40;12.52;;;9.50;99.90;;;;;;5085565;28;20039;-72
2022/12/23 09:23:48;;;;;;;25.70;12.52;;;9.60;99.90;;;;;;5079729;28;20502;-71
2022/12/23 09:26:26;;;;;;;25.02;12.23;;;9.60;99.90;;;;;;5088262;28;20024;-72
2022/12/23 09:28:53;;;;;;;28.63;14.38;;;9.60;99.90;;;;;;5083043;28;20039;-71
2022/12/23 09:31:19;;;;;;;32.10;14.55;;;9.60;99.90;;;;;;5082430;28;20602;-72
2022/12/23 09:33:50;;;;;;;31.25;14.45;;;9.60;99.90;;;;;;5087897;28;20024;-71
2022/12/23 09:36:16;;;;;;;30.67;15.18;;;9.60;99.90;;;;;;5080370;28;20099;-72
2022/12/23 09:38:42;;;;;;;36.85;15.15;;;9.60;99.90;;;;;;5072151;28;20025;-71
2022/12/23 09:41:38;;;;;;;38.33;16.02;;;9.60;99.90;;;;;;5071354;28;20086;-72
2022/12/23 09:44:31;;;;;;;47.60;16.88;;;9.60;99.90;;;;;;5080409;28;20110;-71
2022/12/23 09:47:00;;;;;;;50.53;18.58;;;9.60;99.90;;;;;;5081228;28;20074;-71
2022/12/23 09:49:26;;;;;;;62.28;20.23;;;9.60;99.90;;;;;;5081804;28;20065;-70
2022/12/23 09:51:59;;;;;;;91.85;21.55;;;9.60;99.90;;;;;;5083970;28;20028;-70
2022/12/23 09:54:57;;;;;;;79.47;22.65;;;9.60;99.90;;;;;;5076908;28;20037;-70
2022/12/23 09:57:49;;;;;;;85.13;22.95;;;9.60;99.90;;;;;;5032051;28;20033;-71
2022/12/23 10:00:20;;;;;;;89.93;22.25;;;9.60;99.90;;;;;;5081277;28;20016;-71
2022/12/23 10:02:48;;;;;;;94.25;23.48;;;9.60;99.90;;;;;;5083491;28;20713;-71
2022/12/23 10:05:46;;;;;;;110.32;24.25;;;9.60;99.90;;;;;;5084200;28;20052;-71
2022/12/23 10:08:30;;;;;;;103.40;24.60;;;9.60;99.90;;;;;;5056186;28;20052;-72
2022/12/23 10:11:01;;;;;;;110.32;25.15;;;9.60;99.90;;;;;;5077006;28;20450;-72
2022/12/23 10:13:30;;;;;;;108.05;24.45;;;9.60;99.90;;;;;;5063819;28;20025;-72
2022/12/23 10:16:04;;;;;;;106.45;26.10;;;9.60;99.90;;;;;;5065689;28;20062;-72
2022/12/23 10:18:59;;;;;;;101.93;26.50;;;9.60;99.90;;;;;;5080076;28;20039;-72
2022/12/23 10:21:51;;;;;;;84.50;19.57;;;9.60;99.90;;;;;;5080846;28;20043;-71
2022/12/23 10:24:35;;;;;;;102.85;28.02;;;9.60;99.90;;;;;;5073034;28;20051;-71
2022/12/23 10:27:14;;;;;;;111.68;29.35;;;9.60;99.90;;;;;;5069645;28;20036;-70
2022/12/23 10:29:41;;;;;;;109.72;28.98;;;9.60;99.90;;;;;;5071752;28;20028;-71
2022/12/23 10:32:31;;;;;;;122.38;30.45;;;9.60;99.90;;;;;;5074338;28;20031;-71
2022/12/23 10:35:02;;;;;;;130.40;31.30;;;9.60;99.90;;;;;;5067761;28;20420;-71
2022/12/23 10:37:55;;;;;;;126.95;30.98;;;9.60;99.90;;;;;;5063899;28;20107;-71
2022/12/23 10:40:53;;;;;;;116.18;29.85;;;9.60;99.90;;;;;;5066874;28;20405;-71
2022/12/23 10:43:26;;;;;;;115.90;31.23;;;9.60;99.90;;;;;;5065560;28;20063;-71
2022/12/23 10:46:09;;;;;;;102.15;30.67;;;9.60;99.90;;;;;;5063671;28;20017;-71
2022/12/23 10:48:59;;;;;;;118.07;32.00;;;9.60;99.90;;;;;;5064651;28;20492;-71
2022/12/23 10:51:28;;;;;;;119.10;31.55;;;9.60;99.90;;;;;;5050059;28;20036;-71
2022/12/23 10:54:05;;;;;;;95.32;29.90;;;9.60;99.90;;;;;;5069954;28;20658;-71
2022/12/23 10:56:31;;;;;;;85.47;28.35;;;9.60;99.90;;;;;;5036355;28;20639;-72
2022/12/23 10:58:59;;;;;;;90.90;29.58;;;9.60;99.90;;;;;;5068916;28;20044;-71
2022/12/23 11:01:27;;;;;;;94.50;28.70;;;9.60;99.90;;;;;;5070427;28;20043;-72
2022/12/23 11:04:01;;;;;;;84.28;29.70;;;9.60;99.90;;;;;;5067940;28;20029;-72
2022/12/23 11:06:27;;;;;;;88.25;29.52;;;9.60;99.90;;;;;;5049169;28;20489;-71
2022/12/23 11:08:55;;;;;;;75.68;27.60;;;9.60;99.90;;;;;;5064116;28;20021;-71
2022/12/23 11:11:20;;;;;;;74.75;26.42;;;9.60;99.90;;;;;;5069783;28;20423;-72
2022/12/23 11:13:46;;;;;;;78.03;26.35;;;9.60;99.90;;;;;;5069930;28;20116;-72
2022/12/23 11:16:19;;;;;;;66.82;26.25;;;9.60;99.90;;;;;;5064447;28;20013;-72
2022/12/23 11:18:57;;;;;;;69.47;27.45;;;9.60;99.90;;;;;;5058665;28;20465;-71
2022/12/23 11:21:23;;;;;;;60.90;26.00;;;9.60;99.90;;;;;;5072060;28;20081;-72
2022/12/23 11:24:15;;;;;;;63.25;26.40;;;9.60;99.90;;;;;;5069865;28;20437;-72
2022/12/23 11:26:43;;;;;;;66.03;26.27;;;9.60;99.90;;;;;;5080368;28;20514;-72
2022/12/23 11:29:14;;;;;;;62.28;26.95;;;9.60;99.90;;;;;;5078702;28;20103;-72
2022/12/23 11:31:42;;;;;;;65.75;27.02;;;9.60;99.90;;;;;;5083694;28;20052;-72
2022/12/23 11:34:18;;;;;;;66.80;26.63;;;9.60;99.90;;;;;;5075488;28;20027;-73
2022/12/23 11:36:54;;;;;;;66.68;27.27;;;9.60;99.90;;;;;;5080698;28;20020;-73
2022/12/23 11:39:29;;;;;;;65.22;26.63;;;9.60;99.90;;;;;;5075035;28;20047;-70
2022/12/23 11:42:05;;;;;;;63.25;27.20;;;9.60;99.90;;;;;;5065596;28;20115;-71
2022/12/23 11:44:38;;;;;;;63.53;27.35;;;9.60;99.90;;;;;;5077099;28;20024;-71
2022/12/23 11:47:18;;;;;;;63.92;27.85;;;9.60;99.90;;;;;;5076705;28;20030;-72
2022/12/23 11:49:52;;;;;;;71.90;29.02;;;9.60;99.90;;;;;;5080470;28;20091;-72
2022/12/23 11:52:27;;;;;;;59.58;27.80;;;9.60;99.90;;;;;;5083808;28;20469;-72
2022/12/23 11:54:59;;;;;;;68.00;28.95;;;9.60;99.90;;;;;;5076949;28;20581;-72
2022/12/23 11:57:44;;;;;;;58.60;28.35;;;9.60;99.90;;;;;;5077249;28;20034;-72
2022/12/23 12:00:20;;;;;;;;;;;9.60;99.90;;;;;;5085784;28;20512;-72
2022/12/23 12:02:50;;;;;;;60.67;29.30;;;9.60;99.90;;;;;;5080085;28;19959;-72
2022/12/23 12:05:21;;;;;;;63.47;28.88;;;9.50;99.90;;;;;;5080729;28;20044;-72
2022/12/23 12:07:48;;;;;;;77.28;30.75;;;9.50;99.90;;;;;;5077790;28;20139;-72
2022/12/23 12:10:19;;;;;;;68.75;33.03;;;9.50;99.90;;;;;;5053169;28;20024;-72
2022/12/23 12:12:56;;;;;;;69.68;31.40;;;9.50;99.90;;;;;;5073296;28;20033;-72
2022/12/23 12:15:42;;;;;;;80.22;32.33;;;9.50;99.90;;;;;;5071284;28;20024;-72
2022/12/23 12:18:13;;;;;;;82.30;32.92;;;9.50;99.90;;;;;;5075986;28;20039;-72
2022/12/23 12:20:54;;;;;;;77.82;32.72;;;9.50;99.90;;;;;;5070013;28;20033;-72
2022/12/23 12:23:37;;;;;;;72.18;31.58;;;9.50;99.90;;;;;;5067348;28;20029;-71
2022/12/23 12:26:12;;;;;;;76.32;32.28;;;9.50;99.90;;;;;;5056843;28;20020;-71
2022/12/23 12:28:40;;;;;;;;;;;9.50;99.90;;;;;;5070581;28;20021;-71
2022/12/23 12:31:22;;;;;;;73.80;31.67;;;9.60;99.90;;;;;;5059619;28;19920;-72
2022/12/23 12:33:57;;;;;;;78.68;33.85;;;9.60;99.90;;;;;;5056307;28;20028;-72
2022/12/23 12:36:40;;;;;;;89.90;35.70;;;9.60;99.90;;;;;;5068503;28;20020;-72
2022/12/23 12:39:14;;;;;;;72.30;32.60;;;9.60;99.90;;;;;;5060694;28;20334;-72
2022/12/23 12:41:50;;;;;;;73.70;34.45;;;9.60;99.90;;;;;;5067810;28;20456;-71
2022/12/23 12:44:33;;;;;;;73.35;33.67;;;9.70;99.90;;;;;;5068397;28;20070;-71
2022/12/23 12:47:23;;;;;;;74.07;32.22;;;9.70;99.90;;;;;;5068426;28;20070;-71
2022/12/23 12:50:01;;;;;;;68.75;33.30;;;9.70;99.90;;;;;;5056634;28;20032;-72
2022/12/23 12:52:34;;;;;;;65.43;31.88;;;9.70;99.90;;;;;;5056511;28;20057;-71
2022/12/23 12:55:12;;;;;;;68.32;31.73;;;9.70;99.90;;;;;;5068660;28;20028;-71
2022/12/23 12:57:39;;;;;;;69.22;32.00;;;9.70;99.90;;;;;;5055848;28;20020;-71
2022/12/23 13:00:17;;;;;;;65.50;31.35;;;9.70;99.90;;;;;;5056874;28;20028;-71
2022/12/23 13:02:54;;;;;;;61.38;30.95;;;9.70;99.90;;;;;;5050072;28;20029;-72
2022/12/23 13:05:50;;;;;;;61.00;30.27;;;9.70;99.90;;;;;;5062658;28;20047;-72
2022/12/23 13:08:52;;;;;;;57.13;26.92;;;9.70;99.90;;;;;;5067981;28;20031;-72
2022/12/23 13:11:26;;;;;;;57.28;27.35;;;9.70;99.90;;;;;;5060329;28;20472;-72
2022/12/23 13:14:17;;;;;;;57.47;26.98;;;9.60;99.90;;;;;;5068180;28;20025;-72
2022/12/23 13:17:15;;;;;;;53.97;26.55;;;9.60;99.90;;;;;;5052786;28;20089;-71
2022/12/23 13:19:59;;;;;;;47.50;25.42;;;9.60;99.90;;;;;;5030404;28;20415;-72
2022/12/23 13:22:29;;;;;;;51.63;25.83;;;9.60;99.90;;;;;;5029672;28;20022;-72
2022/12/23 13:25:07;;;;;;;48.80;25.63;;;9.60;99.90;;;;;;5029252;28;20467;-72